sensor_id;sensor_type;location;lat;lon;timestamp;pressure;altitude;pressure_sealevel;temperature
30765;BMP180;494;48.744;10.106;2023-07-20T00:00:10;95121.00;;;21.00
30765;BMP180;494;48.744;10.106;2023-07-20T00:02:51;95582.00;;;21.00
30765;BMP180;494;48.744;10.106;2023-07-20T00:05:34;95700.00;;;19.30
30765;BMP180;494;48.744;10.106;2023-07-20T00:08:10;95569.00;;;20.80
30765;BMP180;494;48.744;10.106;2023-07-20T00:11:00;95580.00;;;20.90
30765;BMP180;494;48.744;10.106;2023-07-20T00:13:40;95276.00;;;20.90
30765;BMP180;494;48.744;10.106;2023-07-20T00:16:15;95585.00;;;21.10
30765;BMP180;494;48.744;10.106;2023-07-20T00:18:48;95471.00;;;21.00
30765;BMP180;494;48.744;10.106;2023-07-20T00:21:42;95408.00;;;21.10
30765;BMP180;494;48.744;10.106;2023-07-20T00:24:15;95611.00;;;20.50
30765;BMP180;494;48.744;10.106;2023-07-20T00:27:01;95554.00;;;21.10
30765;BMP180;494;48.744;10.106;2023-07-20T00:29:37;95598.00;;;21.30
30765;BMP180;494;48.744;10.106;2023-07-20T00:32:16;95553.00;;;21.20
30765;BMP180;494;48.744;10.106;2023-07-20T00:34:57;95596.00;;;21.30
30765;BMP180;494;48.744;10.106;2023-07-20T00:37:39;95185.00;;;21.10
30765;BMP180;494;48.744;10.106;2023-07-20T00:40:36;95582.00;;;21.30
30765;BMP180;494;48.744;10.106;2023-07-20T00:43:15;95058.00;;;20.10
30765;BMP180;494;48.744;10.106;2023-07-20T00:46:03;95533.00;;;20.00
30765;BMP180;494;48.744;10.106;2023-07-20T00:48:40;95595.00;;;21.20
30765;BMP180;494;48.744;10.106;2023-07-20T00:51:30;95559.00;;;21.40
30765;BMP180;494;48.744;10.106;2023-07-20T00:54:14;95070.00;;;21.30
30765;BMP180;494;48.744;10.106;2023-07-20T00:57:07;95643.00;;;20.00
30765;BMP180;494;48.744;10.106;2023-07-20T00:59:44;95578.00;;;21.40
30765;BMP180;494;48.744;10.106;2023-07-20T01:02:33;95669.00;;;21.50
30765;BMP180;494;48.744;10.106;2023-07-20T01:05:24;95170.00;;;21.50
30765;BMP180;494;48.744;10.106;2023-07-20T01:08:46;95586.00;;;20.10
30765;BMP180;494;48.744;10.106;2023-07-20T01:11:28;95504.00;;;21.40
30765;BMP180;494;48.744;10.106;2023-07-20T01:14:26;95463.00;;;21.40
30765;BMP180;494;48.744;10.106;2023-07-20T01:17:05;95577.00;;;21.40
30765;BMP180;494;48.744;10.106;2023-07-20T01:19:49;95408.00;;;21.40
30765;BMP180;494;48.744;10.106;2023-07-20T01:23:00;95585.00;;;21.30
30765;BMP180;494;48.744;10.106;2023-07-20T01:26:02;95153.00;;;20.80
30765;BMP180;494;48.744;10.106;2023-07-20T01:29:05;95576.00;;;21.30
30765;BMP180;494;48.744;10.106;2023-07-20T02:15:00;95579.00;;;20.00
30765;BMP180;494;48.744;10.106;2023-07-20T02:18:35;94826.00;;;20.10
30765;BMP180;494;48.744;10.106;2023-07-20T02:22:13;95219.00;;;19.90
30765;BMP180;494;48.744;10.106;2023-07-20T02:25:03;95407.00;;;18.20
30765;BMP180;494;48.744;10.106;2023-07-20T02:27:42;95319.00;;;19.80
30765;BMP180;494;48.744;10.106;2023-07-20T02:30:41;95570.00;;;19.30
30765;BMP180;494;48.744;10.106;2023-07-20T02:36:34;95588.00;;;19.80
30765;BMP180;494;48.744;10.106;2023-07-20T02:39:36;95177.00;;;19.80
30765;BMP180;494;48.744;10.106;2023-07-20T02:42:40;95633.00;;;19.90
30765;BMP180;494;48.744;10.106;2023-07-20T02:45:17;95596.00;;;19.90
30765;BMP180;494;48.744;10.106;2023-07-20T02:48:14;95105.00;;;19.80
30765;BMP180;494;48.744;10.106;2023-07-20T02:50:59;95510.00;;;19.90
30765;BMP180;494;48.744;10.106;2023-07-20T02:54:25;95040.00;;;19.70
30765;BMP180;494;48.744;10.106;2023-07-20T03:16:27;95589.00;;;19.00
30765;BMP180;494;48.744;10.106;2023-07-20T03:19:14;95598.00;;;19.00
30765;BMP180;494;48.744;10.106;2023-07-20T03:22:00;95401.00;;;19.00
30765;BMP180;494;48.744;10.106;2023-07-20T03:24:33;95573.00;;;18.90
30765;BMP180;494;48.744;10.106;2023-07-20T03:27:03;95190.00;;;18.90
30765;BMP180;494;48.744;10.106;2023-07-20T10:40:42;95598.00;;;28.40
30765;BMP180;494;48.744;10.106;2023-07-20T10:44:02;95592.00;;;27.90
30765;BMP180;494;48.744;10.106;2023-07-20T10:47:07;95643.00;;;28.00
30765;BMP180;494;48.744;10.106;2023-07-20T10:50:05;95419.00;;;27.90
30765;BMP180;494;48.744;10.106;2023-07-20T10:52:40;95572.00;;;27.70
30765;BMP180;494;48.744;10.106;2023-07-20T10:55:29;95591.00;;;27.80
30765;BMP180;494;48.744;10.106;2023-07-20T10:58:53;95601.00;;;27.50
30765;BMP180;494;48.744;10.106;2023-07-20T11:02:05;95134.00;;;28.40
30765;BMP180;494;48.744;10.106;2023-07-20T11:04:43;95160.00;;;28.40
30765;BMP180;494;48.744;10.106;2023-07-20T11:07:42;95611.00;;;26.50
30765;BMP180;494;48.744;10.106;2023-07-20T11:10:26;95178.00;;;28.00
30765;BMP180;494;48.744;10.106;2023-07-20T11:13:18;95586.00;;;28.00
30765;BMP180;494;48.744;10.106;2023-07-20T11:16:08;95214.00;;;28.40
30765;BMP180;494;48.744;10.106;2023-07-20T11:19:39;95586.00;;;28.00
30765;BMP180;494;48.744;10.106;2023-07-20T11:22:41;95317.00;;;28.30
30765;BMP180;494;48.744;10.106;2023-07-20T11:25:12;95425.00;;;28.80
30765;BMP180;494;48.744;10.106;2023-07-20T11:27:46;95583.00;;;29.00
30765;BMP180;494;48.744;10.106;2023-07-20T11:30:33;95597.00;;;28.90
30765;BMP180;494;48.744;10.106;2023-07-20T11:40:36;95630.00;;;27.50
30765;BMP180;494;48.744;10.106;2023-07-20T11:43:27;95610.00;;;28.20
30765;BMP180;494;48.744;10.106;2023-07-20T11:46:24;95494.00;;;28.30
30765;BMP180;494;48.744;10.106;2023-07-20T11:49:22;95661.00;;;28.00
30765;BMP180;494;48.744;10.106;2023-07-20T11:52:31;95568.00;;;29.40
30765;BMP180;494;48.744;10.106;2023-07-20T11:55:28;95566.00;;;29.70
30765;BMP180;494;48.744;10.106;2023-07-20T12:01:55;95589.00;;;30.30
30765;BMP180;494;48.744;10.106;2023-07-20T12:04:27;95621.00;;;28.80
30765;BMP180;494;48.744;10.106;2023-07-20T12:06:58;95543.00;;;29.60
30765;BMP180;494;48.744;10.106;2023-07-20T12:10:04;95316.00;;;29.50
30765;BMP180;494;48.744;10.106;2023-07-20T12:12:37;95499.00;;;29.10
30765;BMP180;494;48.744;10.106;2023-07-20T12:15:19;95404.00;;;29.20
30765;BMP180;494;48.744;10.106;2023-07-20T12:18:08;95563.00;;;29.30
30765;BMP180;494;48.744;10.106;2023-07-20T12:20:40;95488.00;;;29.10
30765;BMP180;494;48.744;10.106;2023-07-20T12:23:13;95420.00;;;30.40
30765;BMP180;494;48.744;10.106;2023-07-20T12:26:00;95572.00;;;30.60
30765;BMP180;494;48.744;10.106;2023-07-20T12:28:32;95010.00;;;30.80
30765;BMP180;494;48.744;10.106;2023-07-20T12:31:27;95558.00;;;31.00
30765;BMP180;494;48.744;10.106;2023-07-20T12:34:45;95533.00;;;31.20
30765;BMP180;494;48.744;10.106;2023-07-20T12:38:35;95509.00;;;31.50
30765;BMP180;494;48.744;10.106;2023-07-20T12:41:22;95525.00;;;31.40
30765;BMP180;494;48.744;10.106;2023-07-20T12:44:23;95519.00;;;31.30
30765;BMP180;494;48.744;10.106;2023-07-20T12:47:34;95415.00;;;31.70
30765;BMP180;494;48.744;10.106;2023-07-20T17:14:50;95384.00;;;28.80
30765;BMP180;494;48.744;10.106;2023-07-20T17:17:20;95390.00;;;28.40
30765;BMP180;494;48.744;10.106;2023-07-20T17:19:49;95267.00;;;28.10
30765;BMP180;494;48.744;10.106;2023-07-20T17:22:38;95315.00;;;27.80
30765;BMP180;494;48.744;10.106;2023-07-20T17:25:09;95394.00;;;27.60
30765;BMP180;494;48.744;10.106;2023-07-20T17:27:41;95311.00;;;27.90
30765;BMP180;494;48.744;10.106;2023-07-20T17:30:15;95391.00;;;27.60
30765;BMP180;494;48.744;10.106;2023-07-20T17:32:44;95413.00;;;27.20
30765;BMP180;494;48.744;10.106;2023-07-20T17:35:13;95386.00;;;27.40
30765;BMP180;494;48.744;10.106;2023-07-20T17:37:42;95339.00;;;27.40
30765;BMP180;494;48.744;10.106;2023-07-20T17:40:15;95353.00;;;27.40
30765;BMP180;494;48.744;10.106;2023-07-20T17:42:49;95387.00;;;27.30
30765;BMP180;494;48.744;10.106;2023-07-20T17:45:23;95377.00;;;27.30
30765;BMP180;494;48.744;10.106;2023-07-20T17:47:52;95400.00;;;27.20
30765;BMP180;494;48.744;10.106;2023-07-20T17:50:23;95067.00;;;26.90
30765;BMP180;494;48.744;10.106;2023-07-20T17:52:54;95344.00;;;26.10
30765;BMP180;494;48.744;10.106;2023-07-20T17:55:24;95386.00;;;27.10
30765;BMP180;494;48.744;10.106;2023-07-20T17:57:54;95319.00;;;27.10
30765;BMP180;494;48.744;10.106;2023-07-20T18:00:25;95359.00;;;26.80
30765;BMP180;494;48.744;10.106;2023-07-20T18:02:58;95446.00;;;26.90
30765;BMP180;494;48.744;10.106;2023-07-20T18:05:27;95320.00;;;26.80
30765;BMP180;494;48.744;10.106;2023-07-20T18:07:56;95325.00;;;26.70
30765;BMP180;494;48.744;10.106;2023-07-20T18:28:17;94857.00;;;25.20
30765;BMP180;494;48.744;10.106;2023-07-20T18:30:53;95382.00;;;24.90
30765;BMP180;494;48.744;10.106;2023-07-20T18:33:30;94836.00;;;24.70
30765;BMP180;494;48.744;10.106;2023-07-20T18:36:03;95445.00;;;24.50
30765;BMP180;494;48.744;10.106;2023-07-20T18:38:42;95065.00;;;24.30
30765;BMP180;494;48.744;10.106;2023-07-20T18:41:33;94968.00;;;24.20
30765;BMP180;494;48.744;10.106;2023-07-20T18:44:12;94907.00;;;24.10
30765;BMP180;494;48.744;10.106;2023-07-20T18:46:46;95379.00;;;23.80
30765;BMP180;494;48.744;10.106;2023-07-20T18:49:21;95382.00;;;23.60
30765;BMP180;494;48.744;10.106;2023-07-20T18:51:55;95580.00;;;23.60
30765;BMP180;494;48.744;10.106;2023-07-20T18:54:27;95084.00;;;23.40
30765;BMP180;494;48.744;10.106;2023-07-20T18:56:57;94937.00;;;23.10
30765;BMP180;494;48.744;10.106;2023-07-20T18:59:36;95391.00;;;23.00
30765;BMP180;494;48.744;10.106;2023-07-20T19:02:23;95538.00;;;22.70
30765;BMP180;494;48.744;10.106;2023-07-20T19:05:11;95332.00;;;22.60
30765;BMP180;494;48.744;10.106;2023-07-20T19:07:50;95399.00;;;20.60
30765;BMP180;494;48.744;10.106;2023-07-20T19:10:32;94924.00;;;20.20
30765;BMP180;494;48.744;10.106;2023-07-20T19:13:46;95487.00;;;22.20
30765;BMP180;494;48.744;10.106;2023-07-20T19:16:39;95349.00;;;22.10
30765;BMP180;494;48.744;10.106;2023-07-20T19:19:34;95607.00;;;22.10
30765;BMP180;494;48.744;10.106;2023-07-20T19:22:27;95055.00;;;21.40
30765;BMP180;494;48.744;10.106;2023-07-20T19:28:26;95385.00;;;21.60
30765;BMP180;494;48.744;10.106;2023-07-20T19:31:18;95459.00;;;19.60
30765;BMP180;494;48.744;10.106;2023-07-20T19:35:05;95227.00;;;21.40
30765;BMP180;494;48.744;10.106;2023-07-20T19:38:44;95534.00;;;20.60
30765;BMP180;494;48.744;10.106;2023-07-20T19:41:48;94860.00;;;19.80
30765;BMP180;494;48.744;10.106;2023-07-20T19:48:22;95139.00;;;20.80
30765;BMP180;494;48.744;10.106;2023-07-20T19:51:05;95051.00;;;20.70
30765;BMP180;494;48.744;10.106;2023-07-20T19:53:41;95441.00;;;20.50
30765;BMP180;494;48.744;10.106;2023-07-20T19:56:27;95445.00;;;20.70
30765;BMP180;494;48.744;10.106;2023-07-20T19:59:07;95451.00;;;20.50
30765;BMP180;494;48.744;10.106;2023-07-20T20:02:15;95527.00;;;20.40
30765;BMP180;494;48.744;10.106;2023-07-20T20:05:13;95082.00;;;20.50
30765;BMP180;494;48.744;10.106;2023-07-20T20:08:19;95166.00;;;20.50
30765;BMP180;494;48.744;10.106;2023-07-20T20:11:09;95434.00;;;20.10
30765;BMP180;494;48.744;10.106;2023-07-20T20:15:00;94868.00;;;19.30
30765;BMP180;494;48.744;10.106;2023-07-20T20:18:30;94697.00;;;20.20
30765;BMP180;494;48.744;10.106;2023-07-20T20:22:20;95008.00;;;20.10
30765;BMP180;494;48.744;10.106;2023-07-20T20:26:09;95480.00;;;20.20
30765;BMP180;494;48.744;10.106;2023-07-20T20:29:44;95021.00;;;19.90
30765;BMP180;494;48.744;10.106;2023-07-20T20:32:24;95489.00;;;20.00
30765;BMP180;494;48.744;10.106;2023-07-20T20:35:34;95280.00;;;19.60
30765;BMP180;494;48.744;10.106;2023-07-20T20:38:32;95475.00;;;19.70
30765;BMP180;494;48.744;10.106;2023-07-20T20:41:36;95453.00;;;19.50
30765;BMP180;494;48.744;10.106;2023-07-20T20:45:47;95545.00;;;19.60
30765;BMP180;494;48.744;10.106;2023-07-20T20:48:11;95614.00;;;19.60
30765;BMP180;494;48.744;10.106;2023-07-20T20:50:44;95431.00;;;19.50
30765;BMP180;494;48.744;10.106;2023-07-20T20:54:24;95429.00;;;19.40
30765;BMP180;494;48.744;10.106;2023-07-20T20:57:28;95025.00;;;19.40
30765;BMP180;494;48.744;10.106;2023-07-20T21:04:50;95431.00;;;18.70
30765;BMP180;494;48.744;10.106;2023-07-20T21:07:51;94966.00;;;19.20
30765;BMP180;494;48.744;10.106;2023-07-20T21:18:37;95077.00;;;19.20
30765;BMP180;494;48.744;10.106;2023-07-20T21:22:11;95008.00;;;18.80
30765;BMP180;494;48.744;10.106;2023-07-20T21:26:13;95435.00;;;17.30
30765;BMP180;494;48.744;10.106;2023-07-20T21:29:52;94999.00;;;18.80
30765;BMP180;494;48.744;10.106;2023-07-20T21:32:37;95440.00;;;18.80
30765;BMP180;494;48.744;10.106;2023-07-20T21:35:24;94924.00;;;18.70
30765;BMP180;494;48.744;10.106;2023-07-20T21:40:06;94737.00;;;18.10
30765;BMP180;494;48.744;10.106;2023-07-20T21:46:07;95492.00;;;17.50
30765;BMP180;494;48.744;10.106;2023-07-20T21:49:21;95025.00;;;18.40
30765;BMP180;494;48.744;10.106;2023-07-20T21:52:13;95003.00;;;18.50
30765;BMP180;494;48.744;10.106;2023-07-20T21:55:49;95309.00;;;18.40
30765;BMP180;494;48.744;10.106;2023-07-20T22:02:20;94923.00;;;16.70
30765;BMP180;494;48.744;10.106;2023-07-20T22:05:43;94836.00;;;18.30
30765;BMP180;494;48.744;10.106;2023-07-20T22:09:06;94766.00;;;17.70
30765;BMP180;494;48.744;10.106;2023-07-20T22:11:52;95153.00;;;18.40
30765;BMP180;494;48.744;10.106;2023-07-20T22:14:25;95310.00;;;18.30
